sensor_id;sensor_type;location;lat;lon;timestamp;P1;durP1;ratioP1;P2;durP2;ratioP2
39344;SDS011;25061;51.954;6.996;2022-08-21T00:01:14;12.25;;;3.50;;
39344;SDS011;25061;51.954;6.996;2022-08-21T00:03:42;12.27;;;3.58;;
39344;SDS011;25061;51.954;6.996;2022-08-21T00:06:09;12.73;;;2.90;;
39344;SDS011;25061;51.954;6.996;2022-08-21T00:08:35;11.40;;;3.00;;
39344;SDS011;25061;51.954;6.996;2022-08-21T00:11:01;9.65;;;2.90;;
39344;SDS011;25061;51.954;6.996;2022-08-21T00:13:27;8.63;;;2.75;;
39344;SDS011;25061;51.954;6.996;2022-08-21T00:15:53;9.38;;;3.22;;
39344;SDS011;25061;51.954;6.996;2022-08-21T00:18:18;10.35;;;3.30;;
39344;SDS011;25061;51.954;6.996;2022-08-21T00:20:44;11.48;;;3.67;;
39344;SDS011;25061;51.954;6.996;2022-08-21T00:23:11;12.68;;;3.90;;
39344;SDS011;25061;51.954;6.996;2022-08-21T00:25:37;9.10;;;3.45;;
39344;SDS011;25061;51.954;6.996;2022-08-21T00:28:04;9.65;;;3.15;;
39344;SDS011;25061;51.954;6.996;2022-08-21T00:30:31;10.43;;;3.17;;
39344;SDS011;25061;51.954;6.996;2022-08-21T00:32:58;9.60;;;3.97;;
39344;SDS011;25061;51.954;6.996;2022-08-21T00:35:26;8.48;;;3.38;;
39344;SDS011;25061;51.954;6.996;2022-08-21T00:37:53;10.75;;;3.20;;
39344;SDS011;25061;51.954;6.996;2022-08-21T00:40:27;10.23;;;3.15;;
39344;SDS011;25061;51.954;6.996;2022-08-21T00:43:02;13.15;;;3.90;;
39344;SDS011;25061;51.954;6.996;2022-08-21T00:45:29;7.95;;;2.97;;
39344;SDS011;25061;51.954;6.996;2022-08-21T00:47:55;10.63;;;3.30;;
39344;SDS011;25061;51.954;6.996;2022-08-21T00:50:21;9.82;;;3.17;;
39344;SDS011;25061;51.954;6.996;2022-08-21T00:52:49;8.88;;;3.80;;
39344;SDS011;25061;51.954;6.996;2022-08-21T00:55:16;11.95;;;4.18;;
39344;SDS011;25061;51.954;6.996;2022-08-21T00:57:47;11.95;;;3.30;;
39344;SDS011;25061;51.954;6.996;2022-08-21T01:00:22;9.82;;;3.40;;
39344;SDS011;25061;51.954;6.996;2022-08-21T01:02:52;9.07;;;3.28;;
39344;SDS011;25061;51.954;6.996;2022-08-21T01:05:18;10.02;;;3.38;;
39344;SDS011;25061;51.954;6.996;2022-08-21T01:07:45;8.38;;;3.15;;
39344;SDS011;25061;51.954;6.996;2022-08-21T01:10:11;9.48;;;3.38;;
39344;SDS011;25061;51.954;6.996;2022-08-21T01:12:37;9.00;;;3.33;;
39344;SDS011;25061;51.954;6.996;2022-08-21T01:15:05;8.85;;;3.28;;
39344;SDS011;25061;51.954;6.996;2022-08-21T01:17:32;7.68;;;3.03;;
39344;SDS011;25061;51.954;6.996;2022-08-21T01:19:58;8.38;;;3.28;;
39344;SDS011;25061;51.954;6.996;2022-08-21T01:22:25;10.75;;;3.78;;
39344;SDS011;25061;51.954;6.996;2022-08-21T01:24:51;9.85;;;3.20;;
39344;SDS011;25061;51.954;6.996;2022-08-21T01:27:17;7.55;;;2.90;;
39344;SDS011;25061;51.954;6.996;2022-08-21T01:32:23;8.55;;;3.38;;
39344;SDS011;25061;51.954;6.996;2022-08-21T01:34:50;10.25;;;3.80;;
39344;SDS011;25061;51.954;6.996;2022-08-21T01:37:16;10.23;;;3.50;;
39344;SDS011;25061;51.954;6.996;2022-08-21T01:39:43;10.32;;;4.32;;
39344;SDS011;25061;51.954;6.996;2022-08-21T01:42:09;8.60;;;3.05;;
39344;SDS011;25061;51.954;6.996;2022-08-21T01:44:35;9.77;;;3.75;;
39344;SDS011;25061;51.954;6.996;2022-08-21T01:47:02;10.20;;;3.72;;
39344;SDS011;25061;51.954;6.996;2022-08-21T01:49:30;9.60;;;3.40;;
39344;SDS011;25061;51.954;6.996;2022-08-21T01:51:56;11.43;;;3.83;;
39344;SDS011;25061;51.954;6.996;2022-08-21T01:54:21;8.00;;;2.97;;
39344;SDS011;25061;51.954;6.996;2022-08-21T01:56:48;6.68;;;2.83;;
39344;SDS011;25061;51.954;6.996;2022-08-21T01:59:16;7.05;;;3.22;;
39344;SDS011;25061;51.954;6.996;2022-08-21T02:01:42;9.23;;;3.50;;
39344;SDS011;25061;51.954;6.996;2022-08-21T02:04:08;10.20;;;3.70;;
39344;SDS011;25061;51.954;6.996;2022-08-21T02:06:35;8.88;;;3.70;;
39344;SDS011;25061;51.954;6.996;2022-08-21T02:09:02;8.38;;;3.08;;
39344;SDS011;25061;51.954;6.996;2022-08-21T02:11:30;8.80;;;3.15;;
39344;SDS011;25061;51.954;6.996;2022-08-21T02:13:57;9.30;;;3.65;;
39344;SDS011;25061;51.954;6.996;2022-08-21T02:16:22;8.85;;;3.45;;
39344;SDS011;25061;51.954;6.996;2022-08-21T02:18:49;8.75;;;2.92;;
39344;SDS011;25061;51.954;6.996;2022-08-21T02:21:15;10.40;;;4.05;;
39344;SDS011;25061;51.954;6.996;2022-08-21T02:23:40;8.65;;;3.50;;
39344;SDS011;25061;51.954;6.996;2022-08-21T02:26:06;8.27;;;3.13;;
39344;SDS011;25061;51.954;6.996;2022-08-21T02:28:33;10.65;;;3.53;;
39344;SDS011;25061;51.954;6.996;2022-08-21T02:30:59;8.27;;;2.90;;
39344;SDS011;25061;51.954;6.996;2022-08-21T02:33:26;8.18;;;3.17;;
39344;SDS011;25061;51.954;6.996;2022-08-21T02:35:52;9.35;;;2.95;;
39344;SDS011;25061;51.954;6.996;2022-08-21T02:38:20;10.98;;;3.00;;
39344;SDS011;25061;51.954;6.996;2022-08-21T02:40:50;8.90;;;3.00;;
39344;SDS011;25061;51.954;6.996;2022-08-21T02:43:18;8.88;;;3.15;;
39344;SDS011;25061;51.954;6.996;2022-08-21T02:45:45;6.90;;;2.90;;
39344;SDS011;25061;51.954;6.996;2022-08-21T02:48:12;10.13;;;3.30;;
39344;SDS011;25061;51.954;6.996;2022-08-21T02:50:41;8.93;;;3.47;;
39344;SDS011;25061;51.954;6.996;2022-08-21T02:53:11;9.15;;;3.13;;
39344;SDS011;25061;51.954;6.996;2022-08-21T02:55:41;7.80;;;3.20;;
39344;SDS011;25061;51.954;6.996;2022-08-21T02:58:09;9.43;;;3.15;;
39344;SDS011;25061;51.954;6.996;2022-08-21T03:00:36;8.30;;;3.10;;
39344;SDS011;25061;51.954;6.996;2022-08-21T03:03:02;7.40;;;2.90;;
39344;SDS011;25061;51.954;6.996;2022-08-21T03:05:29;8.85;;;2.90;;
39344;SDS011;25061;51.954;6.996;2022-08-21T03:07:56;8.85;;;2.95;;
39344;SDS011;25061;51.954;6.996;2022-08-21T03:10:23;9.82;;;4.00;;
39344;SDS011;25061;51.954;6.996;2022-08-21T03:12:50;8.80;;;3.92;;
39344;SDS011;25061;51.954;6.996;2022-08-21T03:15:18;10.25;;;3.33;;
39344;SDS011;25061;51.954;6.996;2022-08-21T03:17:45;9.63;;;4.03;;
39344;SDS011;25061;51.954;6.996;2022-08-21T03:20:12;9.80;;;3.70;;
39344;SDS011;25061;51.954;6.996;2022-08-21T03:22:39;9.48;;;3.30;;
39344;SDS011;25061;51.954;6.996;2022-08-21T03:25:05;11.63;;;3.60;;
39344;SDS011;25061;51.954;6.996;2022-08-21T03:27:31;8.65;;;3.75;;
39344;SDS011;25061;51.954;6.996;2022-08-21T03:29:58;8.75;;;3.80;;
39344;SDS011;25061;51.954;6.996;2022-08-21T03:32:24;10.40;;;3.83;;
39344;SDS011;25061;51.954;6.996;2022-08-21T03:34:50;11.52;;;3.90;;
39344;SDS011;25061;51.954;6.996;2022-08-21T03:37:15;11.68;;;3.90;;
39344;SDS011;25061;51.954;6.996;2022-08-21T03:39:42;9.60;;;3.55;;
39344;SDS011;25061;51.954;6.996;2022-08-21T03:42:08;8.50;;;3.80;;
39344;SDS011;25061;51.954;6.996;2022-08-21T03:44:34;10.93;;;3.50;;
39344;SDS011;25061;51.954;6.996;2022-08-21T03:47:00;8.77;;;3.88;;
39344;SDS011;25061;51.954;6.996;2022-08-21T03:49:26;8.88;;;3.80;;
39344;SDS011;25061;51.954;6.996;2022-08-21T03:51:52;8.63;;;3.20;;
39344;SDS011;25061;51.954;6.996;2022-08-21T03:54:18;10.27;;;4.07;;
39344;SDS011;25061;51.954;6.996;2022-08-21T03:56:44;8.85;;;3.90;;
39344;SDS011;25061;51.954;6.996;2022-08-21T03:59:10;10.75;;;3.90;;
39344;SDS011;25061;51.954;6.996;2022-08-21T04:01:35;10.38;;;3.70;;
39344;SDS011;25061;51.954;6.996;2022-08-21T04:04:01;7.80;;;3.40;;
39344;SDS011;25061;51.954;6.996;2022-08-21T04:06:28;9.23;;;3.30;;
39344;SDS011;25061;51.954;6.996;2022-08-21T04:08:54;8.43;;;3.50;;
39344;SDS011;25061;51.954;6.996;2022-08-21T04:11:19;12.27;;;4.60;;
39344;SDS011;25061;51.954;6.996;2022-08-21T04:13:45;8.27;;;3.70;;
39344;SDS011;25061;51.954;6.996;2022-08-21T04:16:12;9.82;;;3.78;;
39344;SDS011;25061;51.954;6.996;2022-08-21T04:18:38;9.38;;;3.55;;
39344;SDS011;25061;51.954;6.996;2022-08-21T04:21:04;9.10;;;3.88;;
39344;SDS011;25061;51.954;6.996;2022-08-21T04:23:30;7.28;;;3.40;;
39344;SDS011;25061;51.954;6.996;2022-08-21T04:25:56;12.20;;;4.35;;
39344;SDS011;25061;51.954;6.996;2022-08-21T04:28:23;11.02;;;4.05;;
39344;SDS011;25061;51.954;6.996;2022-08-21T04:30:50;10.02;;;3.70;;
39344;SDS011;25061;51.954;6.996;2022-08-21T04:33:16;6.65;;;3.10;;
39344;SDS011;25061;51.954;6.996;2022-08-21T04:35:42;8.85;;;3.70;;
39344;SDS011;25061;51.954;6.996;2022-08-21T04:38:08;8.48;;;3.92;;
39344;SDS011;25061;51.954;6.996;2022-08-21T04:40:34;8.10;;;3.80;;
39344;SDS011;25061;51.954;6.996;2022-08-21T04:43:02;10.40;;;3.80;;
39344;SDS011;25061;51.954;6.996;2022-08-21T04:45:34;9.30;;;3.63;;
39344;SDS011;25061;51.954;6.996;2022-08-21T04:50:52;9.80;;;4.32;;
39344;SDS011;25061;51.954;6.996;2022-08-21T04:55:57;12.40;;;4.40;;
39344;SDS011;25061;51.954;6.996;2022-08-21T04:58:25;10.02;;;4.28;;
39344;SDS011;25061;51.954;6.996;2022-08-21T05:00:53;10.23;;;4.43;;
39344;SDS011;25061;51.954;6.996;2022-08-21T05:03:20;11.82;;;4.55;;
39344;SDS011;25061;51.954;6.996;2022-08-21T05:05:46;9.30;;;4.43;;
39344;SDS011;25061;51.954;6.996;2022-08-21T05:08:14;12.75;;;5.03;;
39344;SDS011;25061;51.954;6.996;2022-08-21T05:10:42;11.23;;;5.10;;
39344;SDS011;25061;51.954;6.996;2022-08-21T05:13:09;12.27;;;4.75;;
39344;SDS011;25061;51.954;6.996;2022-08-21T05:15:43;11.27;;;4.68;;
39344;SDS011;25061;51.954;6.996;2022-08-21T05:18:09;9.18;;;4.22;;
39344;SDS011;25061;51.954;6.996;2022-08-21T05:20:35;11.80;;;5.03;;
39344;SDS011;25061;51.954;6.996;2022-08-21T05:23:01;11.27;;;4.78;;
39344;SDS011;25061;51.954;6.996;2022-08-21T05:25:35;11.93;;;4.63;;
39344;SDS011;25061;51.954;6.996;2022-08-21T05:28:01;9.60;;;4.35;;
39344;SDS011;25061;51.954;6.996;2022-08-21T05:30:27;12.23;;;5.07;;
39344;SDS011;25061;51.954;6.996;2022-08-21T05:32:59;8.45;;;4.32;;
39344;SDS011;25061;51.954;6.996;2022-08-21T05:35:26;10.40;;;5.00;;
39344;SDS011;25061;51.954;6.996;2022-08-21T05:37:52;8.88;;;4.70;;
39344;SDS011;25061;51.954;6.996;2022-08-21T05:40:18;10.18;;;4.47;;
39344;SDS011;25061;51.954;6.996;2022-08-21T05:42:44;10.75;;;5.22;;
39344;SDS011;25061;51.954;6.996;2022-08-21T05:45:10;12.10;;;5.03;;
39344;SDS011;25061;51.954;6.996;2022-08-21T05:47:36;11.85;;;5.25;;
39344;SDS011;25061;51.954;6.996;2022-08-21T05:50:02;12.20;;;5.70;;
39344;SDS011;25061;51.954;6.996;2022-08-21T05:52:28;11.77;;;5.28;;
39344;SDS011;25061;51.954;6.996;2022-08-21T05:54:54;9.95;;;4.70;;
39344;SDS011;25061;51.954;6.996;2022-08-21T05:57:20;10.82;;;5.05;;
39344;SDS011;25061;51.954;6.996;2022-08-21T05:59:46;10.60;;;5.03;;
39344;SDS011;25061;51.954;6.996;2022-08-21T06:02:12;13.25;;;4.95;;
39344;SDS011;25061;51.954;6.996;2022-08-21T06:04:38;11.98;;;4.93;;
39344;SDS011;25061;51.954;6.996;2022-08-21T06:07:04;9.43;;;4.28;;
39344;SDS011;25061;51.954;6.996;2022-08-21T06:09:30;9.75;;;4.97;;
39344;SDS011;25061;51.954;6.996;2022-08-21T06:11:56;10.48;;;5.10;;
39344;SDS011;25061;51.954;6.996;2022-08-21T06:14:21;11.48;;;5.25;;
39344;SDS011;25061;51.954;6.996;2022-08-21T06:16:47;11.10;;;4.63;;
39344;SDS011;25061;51.954;6.996;2022-08-21T06:19:12;13.02;;;5.22;;
39344;SDS011;25061;51.954;6.996;2022-08-21T06:21:38;8.98;;;4.30;;
39344;SDS011;25061;51.954;6.996;2022-08-21T06:24:04;10.93;;;4.65;;
39344;SDS011;25061;51.954;6.996;2022-08-21T06:26:30;12.07;;;4.93;;
39344;SDS011;25061;51.954;6.996;2022-08-21T06:28:56;13.23;;;5.30;;
39344;SDS011;25061;51.954;6.996;2022-08-21T06:31:23;11.63;;;4.68;;
39344;SDS011;25061;51.954;6.996;2022-08-21T06:33:51;14.07;;;5.65;;
39344;SDS011;25061;51.954;6.996;2022-08-21T06:36:18;11.77;;;4.63;;
39344;SDS011;25061;51.954;6.996;2022-08-21T06:38:44;11.75;;;4.43;;
39344;SDS011;25061;51.954;6.996;2022-08-21T06:41:10;9.88;;;5.30;;
39344;SDS011;25061;51.954;6.996;2022-08-21T06:43:36;12.70;;;4.65;;
39344;SDS011;25061;51.954;6.996;2022-08-21T06:46:02;12.18;;;4.05;;
39344;SDS011;25061;51.954;6.996;2022-08-21T06:48:28;12.48;;;4.93;;
39344;SDS011;25061;51.954;6.996;2022-08-21T06:50:55;12.73;;;3.88;;
39344;SDS011;25061;51.954;6.996;2022-08-21T06:53:21;11.45;;;4.53;;
39344;SDS011;25061;51.954;6.996;2022-08-21T06:55:47;10.52;;;4.30;;
39344;SDS011;25061;51.954;6.996;2022-08-21T06:58:13;8.18;;;4.00;;
39344;SDS011;25061;51.954;6.996;2022-08-21T07:00:40;9.57;;;4.00;;
39344;SDS011;25061;51.954;6.996;2022-08-21T07:03:07;8.77;;;3.53;;
39344;SDS011;25061;51.954;6.996;2022-08-21T07:05:33;8.15;;;3.53;;
39344;SDS011;25061;51.954;6.996;2022-08-21T07:07:58;9.75;;;3.30;;
39344;SDS011;25061;51.954;6.996;2022-08-21T07:10:24;12.82;;;4.03;;
39344;SDS011;25061;51.954;6.996;2022-08-21T07:12:51;9.68;;;3.78;;
39344;SDS011;25061;51.954;6.996;2022-08-21T07:15:18;10.38;;;3.60;;
39344;SDS011;25061;51.954;6.996;2022-08-21T07:17:44;11.48;;;4.57;;
39344;SDS011;25061;51.954;6.996;2022-08-21T07:20:10;10.32;;;3.75;;
39344;SDS011;25061;51.954;6.996;2022-08-21T07:22:36;11.02;;;3.80;;
39344;SDS011;25061;51.954;6.996;2022-08-21T07:25:04;11.95;;;3.22;;
39344;SDS011;25061;51.954;6.996;2022-08-21T07:27:30;7.80;;;3.00;;
39344;SDS011;25061;51.954;6.996;2022-08-21T07:29:56;10.73;;;3.33;;
39344;SDS011;25061;51.954;6.996;2022-08-21T07:32:22;8.18;;;2.72;;
39344;SDS011;25061;51.954;6.996;2022-08-21T07:34:47;9.45;;;2.72;;
39344;SDS011;25061;51.954;6.996;2022-08-21T07:37:13;8.70;;;3.45;;
39344;SDS011;25061;51.954;6.996;2022-08-21T07:39:38;8.85;;;2.70;;
39344;SDS011;25061;51.954;6.996;2022-08-21T07:42:04;9.95;;;2.95;;
39344;SDS011;25061;51.954;6.996;2022-08-21T07:44:30;8.50;;;2.80;;
39344;SDS011;25061;51.954;6.996;2022-08-21T07:46:55;11.15;;;3.22;;
39344;SDS011;25061;51.954;6.996;2022-08-21T07:49:21;10.27;;;2.63;;
39344;SDS011;25061;51.954;6.996;2022-08-21T07:51:47;8.38;;;2.30;;
39344;SDS011;25061;51.954;6.996;2022-08-21T07:54:12;10.05;;;3.15;;
39344;SDS011;25061;51.954;6.996;2022-08-21T07:56:38;8.60;;;2.58;;
39344;SDS011;25061;51.954;6.996;2022-08-21T07:59:03;8.30;;;2.38;;
39344;SDS011;25061;51.954;6.996;2022-08-21T08:01:29;9.82;;;2.45;;
39344;SDS011;25061;51.954;6.996;2022-08-21T08:03:55;12.98;;;3.13;;
39344;SDS011;25061;51.954;6.996;2022-08-21T08:06:24;8.35;;;2.15;;
39344;SDS011;25061;51.954;6.996;2022-08-21T08:08:50;7.47;;;2.28;;
39344;SDS011;25061;51.954;6.996;2022-08-21T08:11:17;8.57;;;2.47;;
39344;SDS011;25061;51.954;6.996;2022-08-21T08:13:44;9.98;;;2.38;;
39344;SDS011;25061;51.954;6.996;2022-08-21T08:16:11;8.45;;;2.47;;
39344;SDS011;25061;51.954;6.996;2022-08-21T08:18:37;9.05;;;1.90;;
39344;SDS011;25061;51.954;6.996;2022-08-21T08:21:03;7.72;;;1.95;;
39344;SDS011;25061;51.954;6.996;2022-08-21T08:23:30;9.95;;;2.30;;
39344;SDS011;25061;51.954;6.996;2022-08-21T08:25:57;7.75;;;2.03;;
39344;SDS011;25061;51.954;6.996;2022-08-21T08:28:23;8.30;;;2.08;;
39344;SDS011;25061;51.954;6.996;2022-08-21T08:30:48;6.50;;;2.05;;
39344;SDS011;25061;51.954;6.996;2022-08-21T08:33:15;5.65;;;1.92;;
39344;SDS011;25061;51.954;6.996;2022-08-21T08:35:45;8.55;;;1.98;;
39344;SDS011;25061;51.954;6.996;2022-08-21T08:38:12;6.45;;;1.77;;
39344;SDS011;25061;51.954;6.996;2022-08-21T08:40:43;10.13;;;2.10;;
39344;SDS011;25061;51.954;6.996;2022-08-21T08:43:29;5.60;;;1.25;;
39344;SDS011;25061;51.954;6.996;2022-08-21T08:45:58;6.38;;;1.65;;
39344;SDS011;25061;51.954;6.996;2022-08-21T08:51:04;6.72;;;1.60;;
39344;SDS011;25061;51.954;6.996;2022-08-21T08:53:45;7.10;;;1.80;;
39344;SDS011;25061;51.954;6.996;2022-08-21T08:56:14;8.68;;;2.10;;
39344;SDS011;25061;51.954;6.996;2022-08-21T08:58:41;6.45;;;1.80;;
39344;SDS011;25061;51.954;6.996;2022-08-21T09:01:14;7.53;;;2.72;;
39344;SDS011;25061;51.954;6.996;2022-08-21T09:06:15;5.68;;;1.30;;
39344;SDS011;25061;51.954;6.996;2022-08-21T09:09:06;3.83;;;1.35;;
39344;SDS011;25061;51.954;6.996;2022-08-21T09:14:33;7.07;;;2.20;;
39344;SDS011;25061;51.954;6.996;2022-08-21T09:17:12;8.30;;;2.10;;
39344;SDS011;25061;51.954;6.996;2022-08-21T09:22:26;7.90;;;1.52;;
39344;SDS011;25061;51.954;6.996;2022-08-21T09:25:10;8.07;;;1.90;;
39344;SDS011;25061;51.954;6.996;2022-08-21T09:27:44;6.28;;;1.58;;
39344;SDS011;25061;51.954;6.996;2022-08-21T09:30:10;8.88;;;1.92;;
39344;SDS011;25061;51.954;6.996;2022-08-21T09:32:37;6.20;;;1.70;;
39344;SDS011;25061;51.954;6.996;2022-08-21T09:35:17;6.22;;;1.70;;
39344;SDS011;25061;51.954;6.996;2022-08-21T09:37:58;7.47;;;1.70;;
39344;SDS011;25061;51.954;6.996;2022-08-21T09:43:04;10.55;;;2.05;;
39344;SDS011;25061;51.954;6.996;2022-08-21T09:45:35;7.35;;;1.90;;
39344;SDS011;25061;51.954;6.996;2022-08-21T09:48:38;5.97;;;1.48;;
39344;SDS011;25061;51.954;6.996;2022-08-21T09:51:04;4.32;;;1.27;;
39344;SDS011;25061;51.954;6.996;2022-08-21T09:53:31;7.45;;;1.95;;
39344;SDS011;25061;51.954;6.996;2022-08-21T09:56:02;4.72;;;1.13;;
39344;SDS011;25061;51.954;6.996;2022-08-21T09:58:49;6.40;;;1.40;;
39344;SDS011;25061;51.954;6.996;2022-08-21T10:01:17;7.35;;;1.20;;
39344;SDS011;25061;51.954;6.996;2022-08-21T10:03:44;5.68;;;1.27;;
39344;SDS011;25061;51.954;6.996;2022-08-21T10:06:20;5.80;;;1.48;;
39344;SDS011;25061;51.954;6.996;2022-08-21T10:09:02;5.30;;;1.60;;
39344;SDS011;25061;51.954;6.996;2022-08-21T10:11:31;6.38;;;1.20;;
39344;SDS011;25061;51.954;6.996;2022-08-21T10:19:26;6.80;;;1.23;;
39344;SDS011;25061;51.954;6.996;2022-08-21T10:27:31;4.05;;;1.20;;
39344;SDS011;25061;51.954;6.996;2022-08-21T10:32:56;6.50;;;1.20;;
39344;SDS011;25061;51.954;6.996;2022-08-21T10:35:28;6.60;;;1.52;;
39344;SDS011;25061;51.954;6.996;2022-08-21T10:38:03;5.28;;;1.05;;
39344;SDS011;25061;51.954;6.996;2022-08-21T10:40:38;5.18;;;1.23;;
39344;SDS011;25061;51.954;6.996;2022-08-21T10:48:25;4.33;;;1.10;;
39344;SDS011;25061;51.954;6.996;2022-08-21T10:53:50;6.47;;;1.60;;
39344;SDS011;25061;51.954;6.996;2022-08-21T10:56:27;3.80;;;1.00;;
39344;SDS011;25061;51.954;6.996;2022-08-21T11:01:23;5.03;;;1.30;;
39344;SDS011;25061;51.954;6.996;2022-08-21T11:06:25;8.93;;;1.40;;
39344;SDS011;25061;51.954;6.996;2022-08-21T11:08:57;6.07;;;1.20;;
39344;SDS011;25061;51.954;6.996;2022-08-21T11:11:31;6.22;;;1.30;;
39344;SDS011;25061;51.954;6.996;2022-08-21T11:14:48;6.38;;;1.63;;
39344;SDS011;25061;51.954;6.996;2022-08-21T11:19:36;5.75;;;1.30;;
39344;SDS011;25061;51.954;6.996;2022-08-21T11:24:41;5.70;;;1.20;;
39344;SDS011;25061;51.954;6.996;2022-08-21T11:27:17;4.63;;;1.20;;
39344;SDS011;25061;51.954;6.996;2022-08-21T11:29:57;4.78;;;1.10;;
39344;SDS011;25061;51.954;6.996;2022-08-21T11:32:28;6.50;;;1.25;;
39344;SDS011;25061;51.954;6.996;2022-08-21T11:35:09;6.47;;;1.60;;
39344;SDS011;25061;51.954;6.996;2022-08-21T11:40:32;5.30;;;1.17;;
39344;SDS011;25061;51.954;6.996;2022-08-21T11:45:49;6.78;;;1.40;;
39344;SDS011;25061;51.954;6.996;2022-08-21T11:48:25;7.78;;;1.42;;
39344;SDS011;25061;51.954;6.996;2022-08-21T11:51:18;7.00;;;1.73;;
39344;SDS011;25061;51.954;6.996;2022-08-21T11:56:49;6.65;;;1.35;;
39344;SDS011;25061;51.954;6.996;2022-08-21T11:59:32;5.57;;;1.20;;
39344;SDS011;25061;51.954;6.996;2022-08-21T12:02:33;6.28;;;1.35;;
39344;SDS011;25061;51.954;6.996;2022-08-21T12:05:09;8.27;;;1.73;;
39344;SDS011;25061;51.954;6.996;2022-08-21T12:07:46;5.68;;;1.42;;
39344;SDS011;25061;51.954;6.996;2022-08-21T12:10:17;6.68;;;1.15;;
39344;SDS011;25061;51.954;6.996;2022-08-21T12:12:47;6.15;;;1.80;;
39344;SDS011;25061;51.954;6.996;2022-08-21T12:17:50;7.13;;;1.48;;
39344;SDS011;25061;51.954;6.996;2022-08-21T12:20:27;6.57;;;1.50;;
39344;SDS011;25061;51.954;6.996;2022-08-21T12:23:03;6.88;;;1.63;;
39344;SDS011;25061;51.954;6.996;2022-08-21T12:25:59;5.32;;;1.65;;
39344;SDS011;25061;51.954;6.996;2022-08-21T12:28:27;5.57;;;1.45;;
39344;SDS011;25061;51.954;6.996;2022-08-21T12:30:55;8.43;;;1.52;;
39344;SDS011;25061;51.954;6.996;2022-08-21T12:33:24;7.72;;;1.50;;
39344;SDS011;25061;51.954;6.996;2022-08-21T12:36:10;6.05;;;1.42;;
39344;SDS011;25061;51.954;6.996;2022-08-21T12:41:28;5.32;;;1.38;;
39344;SDS011;25061;51.954;6.996;2022-08-21T12:46:39;7.28;;;1.10;;
39344;SDS011;25061;51.954;6.996;2022-08-21T12:49:54;6.15;;;1.48;;
39344;SDS011;25061;51.954;6.996;2022-08-21T12:52:16;5.38;;;1.35;;
39344;SDS011;25061;51.954;6.996;2022-08-21T12:54:55;6.05;;;1.48;;
39344;SDS011;25061;51.954;6.996;2022-08-21T12:57:22;5.03;;;1.13;;
39344;SDS011;25061;51.954;6.996;2022-08-21T12:59:54;6.22;;;1.50;;
39344;SDS011;25061;51.954;6.996;2022-08-21T13:02:20;6.13;;;1.20;;
39344;SDS011;25061;51.954;6.996;2022-08-21T13:04:49;5.70;;;1.10;;
39344;SDS011;25061;51.954;6.996;2022-08-21T13:07:16;6.90;;;1.55;;
39344;SDS011;25061;51.954;6.996;2022-08-21T13:09:51;6.25;;;1.50;;
39344;SDS011;25061;51.954;6.996;2022-08-21T13:12:19;5.72;;;1.30;;
39344;SDS011;25061;51.954;6.996;2022-08-21T13:14:46;6.03;;;1.30;;
39344;SDS011;25061;51.954;6.996;2022-08-21T13:17:16;7.18;;;1.50;;
39344;SDS011;25061;51.954;6.996;2022-08-21T13:20:04;5.07;;;1.30;;
39344;SDS011;25061;51.954;6.996;2022-08-21T13:22:42;5.63;;;1.45;;
39344;SDS011;25061;51.954;6.996;2022-08-21T13:25:14;6.53;;;1.33;;
39344;SDS011;25061;51.954;6.996;2022-08-21T13:27:44;6.72;;;1.15;;
39344;SDS011;25061;51.954;6.996;2022-08-21T13:30:22;5.60;;;1.27;;
39344;SDS011;25061;51.954;6.996;2022-08-21T13:32:49;6.30;;;1.17;;
39344;SDS011;25061;51.954;6.996;2022-08-21T13:35:21;5.82;;;1.05;;
39344;SDS011;25061;51.954;6.996;2022-08-21T13:37:50;7.82;;;1.52;;
39344;SDS011;25061;51.954;6.996;2022-08-21T13:40:24;5.90;;;1.20;;
39344;SDS011;25061;51.954;6.996;2022-08-21T13:42:51;5.50;;;1.20;;
39344;SDS011;25061;51.954;6.996;2022-08-21T13:45:21;4.78;;;1.10;;
39344;SDS011;25061;51.954;6.996;2022-08-21T13:48:00;5.57;;;1.27;;
39344;SDS011;25061;51.954;6.996;2022-08-21T13:50:27;5.10;;;1.42;;
39344;SDS011;25061;51.954;6.996;2022-08-21T13:53:01;4.45;;;1.30;;
39344;SDS011;25061;51.954;6.996;2022-08-21T13:55:37;5.55;;;1.20;;
39344;SDS011;25061;51.954;6.996;2022-08-21T13:58:08;9.10;;;1.85;;
39344;SDS011;25061;51.954;6.996;2022-08-21T14:00:42;6.57;;;1.20;;
39344;SDS011;25061;51.954;6.996;2022-08-21T14:03:15;5.28;;;1.08;;
39344;SDS011;25061;51.954;6.996;2022-08-21T14:05:59;5.72;;;1.20;;
39344;SDS011;25061;51.954;6.996;2022-08-21T14:08:33;6.07;;;1.10;;
39344;SDS011;25061;51.954;6.996;2022-08-21T14:11:02;6.20;;;1.45;;
39344;SDS011;25061;51.954;6.996;2022-08-21T14:13:43;5.75;;;1.10;;
39344;SDS011;25061;51.954;6.996;2022-08-21T14:18:43;6.28;;;1.20;;
39344;SDS011;25061;51.954;6.996;2022-08-21T14:21:25;4.97;;;1.17;;
39344;SDS011;25061;51.954;6.996;2022-08-21T14:26:29;6.30;;;1.10;;
39344;SDS011;25061;51.954;6.996;2022-08-21T14:28:58;7.32;;;1.42;;
39344;SDS011;25061;51.954;6.996;2022-08-21T14:31:28;7.57;;;1.35;;
39344;SDS011;25061;51.954;6.996;2022-08-21T14:33:55;4.32;;;1.15;;
39344;SDS011;25061;51.954;6.996;2022-08-21T14:36:21;5.93;;;1.23;;
39344;SDS011;25061;51.954;6.996;2022-08-21T14:38:47;5.05;;;1.45;;
39344;SDS011;25061;51.954;6.996;2022-08-21T14:41:17;5.35;;;1.13;;
39344;SDS011;25061;51.954;6.996;2022-08-21T14:43:46;4.47;;;1.10;;
39344;SDS011;25061;51.954;6.996;2022-08-21T14:46:13;4.38;;;1.15;;
39344;SDS011;25061;51.954;6.996;2022-08-21T14:48:47;4.47;;;1.23;;
39344;SDS011;25061;51.954;6.996;2022-08-21T14:51:13;4.50;;;1.00;;
39344;SDS011;25061;51.954;6.996;2022-08-21T14:53:38;4.30;;;1.20;;
39344;SDS011;25061;51.954;6.996;2022-08-21T14:56:04;9.10;;;1.20;;
39344;SDS011;25061;51.954;6.996;2022-08-21T14:58:30;4.18;;;0.98;;
39344;SDS011;25061;51.954;6.996;2022-08-21T15:00:57;8.85;;;1.40;;
39344;SDS011;25061;51.954;6.996;2022-08-21T15:03:23;5.85;;;1.15;;
39344;SDS011;25061;51.954;6.996;2022-08-21T15:05:50;7.20;;;1.20;;
39344;SDS011;25061;51.954;6.996;2022-08-21T15:08:16;4.22;;;1.00;;
39344;SDS011;25061;51.954;6.996;2022-08-21T15:10:42;8.55;;;1.20;;
39344;SDS011;25061;51.954;6.996;2022-08-21T15:13:08;5.97;;;1.27;;
39344;SDS011;25061;51.954;6.996;2022-08-21T15:15:39;4.47;;;1.05;;
39344;SDS011;25061;51.954;6.996;2022-08-21T15:18:09;5.78;;;1.17;;
39344;SDS011;25061;51.954;6.996;2022-08-21T15:20:35;7.05;;;1.10;;
39344;SDS011;25061;51.954;6.996;2022-08-21T15:23:01;5.50;;;1.20;;
39344;SDS011;25061;51.954;6.996;2022-08-21T15:25:27;6.22;;;1.48;;
39344;SDS011;25061;51.954;6.996;2022-08-21T15:27:53;5.90;;;1.63;;
39344;SDS011;25061;51.954;6.996;2022-08-21T15:30:19;4.97;;;1.30;;
39344;SDS011;25061;51.954;6.996;2022-08-21T15:32:44;7.20;;;1.17;;
39344;SDS011;25061;51.954;6.996;2022-08-21T15:35:10;3.75;;;1.00;;
39344;SDS011;25061;51.954;6.996;2022-08-21T15:37:36;5.22;;;1.25;;
39344;SDS011;25061;51.954;6.996;2022-08-21T15:40:02;5.55;;;1.20;;
39344;SDS011;25061;51.954;6.996;2022-08-21T15:42:31;7.15;;;1.10;;
39344;SDS011;25061;51.954;6.996;2022-08-21T15:44:57;5.72;;;1.10;;
39344;SDS011;25061;51.954;6.996;2022-08-21T15:47:30;7.55;;;1.52;;
39344;SDS011;25061;51.954;6.996;2022-08-21T15:49:58;6.47;;;1.30;;
39344;SDS011;25061;51.954;6.996;2022-08-21T15:52:24;4.82;;;1.23;;
39344;SDS011;25061;51.954;6.996;2022-08-21T15:54:50;5.55;;;1.17;;
39344;SDS011;25061;51.954;6.996;2022-08-21T15:57:17;6.07;;;1.45;;
39344;SDS011;25061;51.954;6.996;2022-08-21T15:59:47;4.78;;;1.15;;
39344;SDS011;25061;51.954;6.996;2022-08-21T16:02:17;5.32;;;1.40;;
39344;SDS011;25061;51.954;6.996;2022-08-21T16:04:49;3.22;;;1.02;;
39344;SDS011;25061;51.954;6.996;2022-08-21T16:07:20;4.95;;;1.02;;
39344;SDS011;25061;51.954;6.996;2022-08-21T16:09:46;6.10;;;1.45;;